Latest Weather Observations for Gove Airport

IDD60801

Issued at 5:31 am CST Monday 5 December 2016 (issued every 30 minutes, with the page automatically refreshed every 10 minutes)

About weather observations | Map of weather stations | Latest weather observations for NT | Other Formats
Station Details ID: 014508 Name: GOVE AIRPORT Lat: -12.27 Lon: 136.82 Height: 51.6 m
Data from the previous 72 hours. | See also: Recent months at Gove Airport
Date/Time
CST
Temp
°C
App
Temp
°C
Dew
Point
°C
Rel
Hum
%
Delta-T
°C
Wind Press
QNH
hPa
Press
MSL
hPa
Rain since
9am
mm
Dir  Spd
km/h
Gust
km/h
Spd
kts
Gust
kts
05/05:30am 23.5 27.5 20.6 84 1.9 CALM 0 0 0 0 1009.3 1008.9 0.0
05/05:00am 23.4 27.4 20.5 84 1.9 CALM 0 0 0 0 1008.8 1008.4 0.0
05/04:30am 23.5 27.5 20.6 84 1.9 CALM 0 0 0 0 1008.5 1008.1 0.0
05/04:00am 23.4 27.4 20.6 84 1.8 CALM 0 0 0 0 1008.5 1008.1 0.0
05/03:30am 23.9 28.1 20.9 83 2.0 CALM 0 0 0 0 1008.3 1007.9 0.0
05/03:00am 24.0 28.1 20.8 82 2.1 CALM 0 0 0 0 1008.4 1008.0 0.0
05/02:30am 24.3 28.4 20.8 81 2.3 CALM 0 0 0 0 1008.6 1008.2 0.0
05/02:00am 24.6 28.8 21.0 80 2.4 CALM 0 6 0 3 1008.8 1008.4 0.0
05/01:30am 24.4 27.9 21.1 82 2.2 SSE 4 7 2 4 1009.1 1008.7 0.0
05/01:00am 24.6 28.9 21.1 81 2.3 CALM 0 0 0 0 1009.2 1008.8 0.0
05/12:30am 24.8 28.7 21.2 80 2.4 SSE 2 6 1 3 1009.4 1009.0 0.0
05/12:00am 25.4 29.8 21.3 78 2.7 CALM 0 0 0 0 1009.7 1009.3 0.0
 
Date/Time
CST
Temp
°C
App
Temp
°C
Dew
Point
°C
Rel
Hum
%
Delta-T
°C
Wind Press
QNH
hPa
Press
MSL
hPa
Rain since
9am
mm
Dir  Spd
km/h
Gust
km/h
Spd
kts
Gust
kts
04/11:30pm 25.9 29.2 21.5 76 2.9 SSE 6 7 3 4 1009.9 1009.5 0.0
04/11:00pm 26.4 29.7 21.4 74 3.3 SE 6 7 3 4 1010.1 1009.7 0.0
04/10:30pm 27.1 30.3 21.7 72 3.6 ESE 7 9 4 5 1010.0 1009.6 0.0
04/10:00pm 27.7 30.5 21.6 69 4.1 ESE 9 11 5 6 1009.9 1009.5 0.0
04/09:30pm 28.0 30.9 21.8 69 4.2 ESE 9 11 5 6 1009.8 1009.4 0.0
04/09:00pm 28.3 31.0 22.1 69 4.2 ESE 11 15 6 8 1009.8 1009.4 0.0
04/08:30pm 28.6 31.1 22.4 69 4.2 ESE 13 17 7 9 1009.5 1009.1 0.0
04/08:00pm 28.9 31.3 22.9 70 4.1 ESE 15 20 8 11 1009.2 1008.8 0.0
04/07:30pm 28.7 31.7 22.7 70 4.1 SSE 11 15 6 8 1009.0 1008.6 0.0
04/07:00pm 28.9 32.1 23.1 71 4.0 SSE 11 15 6 8 1008.7 1008.3 0.0
04/06:30pm 29.5 31.3 22.6 66 4.7 SE 17 24 9 13 1008.5 1008.1 0.0
04/06:00pm 30.1 31.6 22.0 62 5.5 SE 17 20 9 11 1008.5 1008.1 0.0
04/05:30pm 31.0 32.2 21.4 56 6.5 SSE 17 24 9 13 1008.4 1008.0 0.0
04/05:00pm 31.9 32.2 20.3 50 7.7 SSE 19 30 10 16 1008.2 1007.8 0.0
04/04:30pm 32.0 31.5 19.9 48 8.0 SE 22 30 12 16 1008.0 1007.6 0.0
04/04:00pm 32.1 32.1 19.7 48 8.2 SE 19 30 10 16 1008.0 1007.6 0.0
04/03:30pm 32.6 33.3 20.5 49 8.1 ESE 17 28 9 15 1008.0 1007.6 0.0
04/03:00pm 33.1 33.0 20.0 46 8.7 E 20 30 11 16 1008.3 1007.9 0.0
04/02:30pm 32.1 32.7 21.3 53 7.3 ESE 20 28 11 15 1008.9 1008.5 0.0
04/02:00pm 31.9 33.0 21.2 53 7.2 ENE 17 28 9 15 1009.3 1008.9 0.0
04/01:30pm 32.0 33.4 21.0 52 7.4 E 15 26 8 14 1009.6 1009.2 0.0
04/01:00pm 32.7 33.3 21.1 50 7.8 E 19 32 10 17 1009.9 1009.5 0.0
04/12:30pm 30.8 31.7 21.5 57 6.3 E 19 28 10 15 1010.1 1009.7 0.0
04/12:00pm 32.4 33.2 21.8 53 7.2 E 20 28 11 15 1010.4 1010.0 0.0
04/11:30am 31.8 32.7 21.6 54 6.9 E 19 26 10 14 1010.6 1010.2 0.0
04/11:00am 30.9 32.6 21.6 57 6.3 E 15 22 8 12 1010.9 1010.5 0.0
04/10:30am 31.1 32.2 21.3 56 6.6 ENE 17 26 9 14 1011.1 1010.7 0.0
04/10:00am 31.2 32.8 21.4 56 6.6 E 15 22 8 12 1011.3 1010.9 0.0
04/09:30am 30.9 32.1 21.4 57 6.4 ENE 17 22 9 12 1011.5 1011.1 0.0
04/09:00am 30.6 31.8 21.4 58 6.2 E 17 28 9 15 1011.5 1011.1 0.0
04/08:30am 30.2 31.9 21.6 60 5.8 SE 15 20 8 11 1011.4 1011.0 0.0
04/08:00am 30.4 32.8 22.3 62 5.5 ESE 13 20 7 11 1011.2 1010.8 0.0
04/07:30am 29.1 32.7 23.1 70 4.1 SSE 9 13 5 7 1011.1 1010.7 0.0
04/07:01am 27.6 31.7 22.9 75 3.2 S 6 9 3 5 1010.9 1010.5 0.0
04/07:00am 27.5 31.6 23.0 76 3.1 S 6 9 3 5 1010.9 1010.5 0.0
04/06:30am 24.6 29.2 22.4 87 1.5 SSW 2 7 1 4 1010.7 1010.3 0.0
04/06:00am 23.3 27.8 21.6 90 1.1 CALM 0 0 0 0 1010.3 1009.9 0.0
04/05:30am 23.2 27.6 21.4 90 1.2 CALM 0 0 0 0 1009.8 1009.4 0.0
04/05:01am 23.3 27.6 21.2 88 1.4 CALM 0 0 0 0 1009.4 1009.0 0.0
04/05:00am 23.3 27.6 21.2 88 1.4 CALM 0 0 0 0 1009.4 1009.0 0.0
04/04:30am 23.4 27.8 21.4 88 1.3 CALM 0 0 0 0 1009.3 1008.9 0.0
04/04:00am 23.7 28.2 21.6 88 1.4 CALM 0 0 0 0 1009.0 1008.6 0.0
04/03:30am 23.8 28.4 21.8 88 1.3 CALM 0 0 0 0 1009.0 1008.6 0.0
04/03:00am 24.1 28.7 21.8 87 1.5 CALM 0 0 0 0 1009.0 1008.6 0.0
04/02:30am 24.2 29.1 22.3 89 1.3 CALM 0 0 0 0 1009.1 1008.7 0.0
04/02:00am 24.3 29.3 22.5 90 1.2 CALM 0 0 0 0 1009.4 1009.0 0.0
04/01:30am 24.6 29.5 22.4 87 1.5 CALM 0 0 0 0 1009.5 1009.1 0.0
04/01:00am 24.8 29.7 22.4 86 1.6 CALM 0 0 0 0 1010.1 1009.7 0.0
04/12:30am 25.1 29.9 22.1 83 2.0 CALM 0 0 0 0 1010.5 1010.1 0.0
04/12:00am 25.4 30.3 22.4 83 2.0 CALM 0 0 0 0 1011.0 1010.6 0.0
 
Date/Time
CST
Temp
°C
App
Temp
°C
Dew
Point
°C
Rel
Hum
%
Delta-T
°C
Wind Press
QNH
hPa
Press
MSL
hPa
Rain since
9am
mm
Dir  Spd
km/h
Gust
km/h
Spd
kts
Gust
kts
03/11:30pm 25.5 30.4 22.4 83 2.1 CALM 0 0 0 0 1011.2 1010.8 0.0
03/11:00pm 25.7 29.5 22.4 82 2.2 SSW 6 7 3 4 1011.5 1011.1 0.0
03/10:30pm 25.9 29.6 22.2 80 2.5 SSW 6 7 3 4 1011.5 1011.1 0.0
03/10:00pm 26.6 30.1 22.1 76 3.0 S 7 11 4 6 1011.3 1010.9 0.0
03/09:30pm 27.2 30.7 22.2 74 3.4 SSE 7 9 4 5 1011.1 1010.7 0.0
03/09:00pm 27.7 31.2 22.1 71 3.8 SE 7 9 4 5 1010.9 1010.5 0.0
03/08:30pm 27.8 31.2 22.0 70 3.9 SE 7 9 4 5 1010.6 1010.2 0.0
03/08:00pm 28.4 31.7 21.9 68 4.4 SE 7 9 4 5 1010.4 1010.0 0.0
03/07:30pm 29.3 31.7 21.6 63 5.2 ESE 11 13 6 7 1010.1 1009.7 0.0
03/07:00pm 29.5 31.4 21.3 61 5.5 ESE 13 15 7 8 1009.7 1009.3 0.0
03/06:30pm 30.1 31.4 20.8 57 6.2 E 15 20 8 11 1009.3 1008.9 0.0
03/06:00pm 30.9 31.4 20.9 55 6.7 ESE 19 24 10 13 1009.1 1008.7 0.0
03/05:30pm 31.4 31.5 20.3 51 7.4 E 20 26 11 14 1009.0 1008.6 0.0
03/05:00pm 32.2 31.2 17.9 42 9.2 ESE 20 28 11 15 1008.8 1008.4 0.0
03/04:30pm 32.5 31.1 18.7 44 9.0 ESE 24 32 13 17 1008.8 1008.4 0.0
03/04:00pm 33.2 31.5 17.3 38 10.2 E 22 30 12 16 1008.8 1008.4 0.0
03/03:30pm 33.0 31.0 16.4 37 10.5 ESE 22 33 12 18 1008.9 1008.5 0.0
03/03:00pm 34.3 30.9 13.7 29 12.6 E 24 33 13 18 1009.1 1008.7 0.0
03/02:30pm 34.1 31.9 16.9 36 11.0 ESE 24 35 13 19 1009.4 1009.0 0.0
03/02:00pm 34.4 31.6 16.3 34 11.5 ESE 26 35 14 19 1009.5 1009.1 0.0
03/01:30pm 33.8 32.5 19.1 42 9.7 E 24 32 13 17 1009.9 1009.5 0.0
03/01:00pm 34.5 32.2 17.7 37 10.9 ESE 26 39 14 21 1010.2 1009.8 0.0
03/12:30pm 34.6 33.5 18.6 38 10.5 E 22 30 12 16 1010.7 1010.3 0.0
03/12:00pm 34.6 33.4 19.2 40 10.2 E 24 33 13 18 1010.9 1010.5 0.0
03/11:30am 32.8 32.7 20.7 49 8.1 ESE 22 39 12 21 1011.2 1010.8 0.0
03/11:00am 33.2 31.5 17.1 38 10.3 E 22 32 12 17 1011.6 1011.2 0.0
03/10:30am 32.8 32.3 19.1 44 9.0 E 20 32 11 17 1011.9 1011.5 0.0
03/10:00am 32.6 33.1 20.8 49 7.9 E 19 26 10 14 1012.0 1011.6 0.0
03/09:30am 31.7 32.7 22.2 57 6.5 ESE 20 32 11 17 1012.0 1011.6 0.0
03/09:00am 32.1 33.8 23.0 58 6.3 ENE 19 28 10 15 1012.0 1011.6 0.0
03/08:30am 30.8 32.8 22.9 62 5.4 ENE 17 24 9 13 1011.9 1011.5 0.0
03/08:00am 29.7 32.3 23.3 68 4.4 ENE 15 22 8 12 1011.7 1011.3 0.0
03/07:30am 29.9 33.7 23.4 68 4.5 E 9 15 5 8 1011.5 1011.1 0.0
03/07:00am 27.8 32.2 23.4 77 3.0 ESE 6 7 3 4 1011.2 1010.8 0.0
03/06:30am 25.0 30.2 22.9 88 1.4 CALM 0 0 0 0 1011.0 1010.6 0.0
03/06:00am 24.2 29.4 22.9 92 0.9 CALM 0 0 0 0 1010.7 1010.3 0.0
03/05:30am 24.5 29.4 22.4 88 1.4 CALM 0 0 0 0 1010.2 1009.8 0.0
03/05:00am 24.4 29.5 22.6 90 1.2 CALM 0 0 0 0 1009.9 1009.5 0.0
03/04:30am 23.9 29.0 22.6 92 0.9 CALM 0 0 0 0 1009.9 1009.5 0.0
03/04:00am 23.7 28.5 22.1 91 1.1 CALM 0 0 0 0 1009.6 1009.2 0.0
03/03:30am 23.8 28.8 22.5 92 0.9 CALM 0 0 0 0 1009.5 1009.1 0.0
03/03:00am 24.3 29.3 22.5 90 1.2 CALM 0 0 0 0 1009.5 1009.1 0.0
03/02:30am 24.3 29.2 22.4 89 1.3 CALM 0 0 0 0 1009.8 1009.4 0.0
03/02:00am 24.4 29.4 22.5 89 1.3 CALM 0 0 0 0 1009.6 1009.2 0.0
03/01:30am 25.1 30.2 22.6 86 1.7 CALM 0 0 0 0 1009.7 1009.3 0.0
03/01:00am 25.5 30.7 22.8 85 1.8 CALM 0 0 0 0 1010.0 1009.6 0.0
03/12:30am 27.1 32.0 23.0 78 2.8 NE 2 7 1 4 1010.2 1009.8 0.0
03/12:00am 27.5 31.6 23.0 76 3.1 ENE 6 7 3 4 1010.8 1010.4 0.0
 
Date/Time
CST
Temp
°C
App
Temp
°C
Dew
Point
°C
Rel
Hum
%
Delta-T
°C
Wind Press
QNH
hPa
Press
MSL
hPa
Rain since
9am
mm
Dir  Spd
km/h
Gust
km/h
Spd
kts
Gust
kts
02/11:30pm 27.4 31.4 22.7 75 3.2 E 6 7 3 4 1011.1 1010.7 0.0
02/11:00pm 27.6 31.6 22.7 74 3.3 E 6 9 3 5 1011.1 1010.7 0.0
02/10:30pm 28.4 31.9 22.8 71 3.8 E 9 13 5 7 1011.0 1010.6 0.0
02/10:00pm 28.7 32.3 23.0 71 3.9 E 9 15 5 8 1010.9 1010.5 0.0
02/09:30pm 28.8 32.5 23.3 72 3.8 E 9 11 5 6 1010.6 1010.2 0.0
02/09:00pm 29.1 32.6 23.6 72 3.8 E 11 15 6 8 1010.3 1009.9 0.0
02/08:30pm 29.2 33.0 23.4 71 4.0 E 9 13 5 7 1010.0 1009.6 0.0
02/08:00pm 29.4 32.6 23.1 69 4.3 E 11 15 6 8 1009.6 1009.2 0.0
02/07:30pm 29.7 32.8 23.5 69 4.3 E 13 17 7 9 1009.3 1008.9 0.0
02/07:00pm 29.8 32.9 24.2 72 3.9 E 15 20 8 11 1009.0 1008.6 0.0
02/06:30pm 30.1 32.8 24.2 70 4.1 E 17 22 9 12 1008.7 1008.3 0.0
02/06:00pm 30.6 33.9 24.5 70 4.3 NE 15 19 8 10 1008.9 1008.5 0.0
02/05:30pm 30.6 33.3 24.2 68 4.5 NE 17 24 9 13 1008.9 1008.5 0.0
02/05:00pm 31.7 34.5 24.3 65 5.2 ENE 17 26 9 14 1008.5 1008.1 0.0
02/04:30pm 31.6 34.0 24.3 65 5.1 ENE 19 28 10 15 1008.6 1008.2 0.0
02/04:00pm 31.8 34.2 24.2 64 5.3 ENE 19 28 10 15 1008.4 1008.0 0.0
02/03:30pm 32.3 33.7 23.5 59 6.1 ENE 22 32 12 17 1008.6 1008.2 0.0
02/03:00pm 32.7 33.9 22.5 55 7.0 ENE 20 30 11 16 1008.8 1008.4 0.0
02/02:30pm 33.2 34.3 22.3 52 7.5 NE 20 32 11 17 1008.9 1008.5 0.0
02/02:00pm 32.2 33.5 23.4 59 6.1 ENE 22 32 12 17 1009.3 1008.9 0.0
02/01:30pm 32.6 34.3 23.4 58 6.4 ENE 20 30 11 16 1009.6 1009.2 0.0
02/01:00pm 33.0 34.4 22.9 55 7.0 NE 20 30 11 16 1009.9 1009.5 0.0
02/12:30pm 33.1 34.9 23.3 56 6.8 NE 19 26 10 14 1010.4 1010.0 0.0
02/12:00pm 33.2 34.8 23.3 56 6.9 NE 20 28 11 15 1010.7 1010.3 0.0
02/11:30am 32.0 34.2 23.3 60 6.0 NE 17 28 9 15 1011.1 1010.7 0.0
02/11:00am 32.5 34.3 23.3 58 6.4 NE 19 26 10 14 1011.5 1011.1 0.0
02/10:30am 31.9 34.3 22.9 59 6.2 N 15 20 8 11 1011.7 1011.3 0.0
02/10:00am 32.2 35.3 22.9 58 6.4 NNE 11 17 6 9 1011.5 1011.1 0.0
02/09:30am 31.4 34.1 22.8 60 5.9 NE 13 24 7 13 1011.3 1010.9 0.0
02/09:00am 31.9 34.6 22.9 59 6.2 NNE 13 20 7 11 1011.4 1011.0 0.2
02/08:30am 30.8 33.7 23.1 63 5.3 NE 13 20 7 11 1011.2 1010.8 0.2
02/08:00am 30.7 32.3 22.8 62 5.4 NE 19 24 10 13 1011.0 1010.6 0.2
02/07:30am 30.0 32.8 23.6 68 4.4 ENE 15 20 8 11 1010.9 1010.5 0.2
02/07:00am 29.1 33.8 23.9 73 3.6 NE 6 11 3 6 1010.6 1010.2 0.2
02/06:30am 27.4 31.9 23.6 80 2.6 ENE 6 7 3 4 1010.2 1009.8 0.2
02/06:00am 25.6 31.4 24.0 91 1.1 CALM 0 0 0 0 1010.0 1009.6 0.2

Other Formats:

Comma delimited format used in spreadsheet applications
http://www.bom.gov.au/fwo/IDD60801/IDD60801.94150.axf

JavaScript Object Notation format (JSON) in row-major order
http://www.bom.gov.au/fwo/IDD60801/IDD60801.94150.json